Time;durP1;ratioP1;P1;durP2;ratioP2;P2;SDS_P1;SDS_P2;PMS_P1;PMS_P2;Temp;Humidity;BMP_temperature;BMP_pressure;BME280_temperature;BME280_humidity;BME280_pressure;Samples;Min_cycle;Max_cycle;Signal;HPM_P1;HPM_P2
2024/01/31 00:00:22;;;;;;;227.93;169.40;;;;;;;;;;5020608;28;20060;-73
2024/01/31 00:02:47;;;;;;;234.27;171.88;;;;;;;;;;5026238;28;20163;-75
2024/01/31 00:05:13;;;;;;;230.43;167.75;;;;;;;;;;5027562;28;20432;-73
2024/01/31 00:07:39;;;;;;;204.85;140.95;;;;;;;;;;5020022;28;20413;-74
2024/01/31 00:10:04;;;;;;;224.77;154.68;;;;;;;;;;5025835;28;20036;-74
2024/01/31 00:12:30;;;;;;;347.10;244.23;;;;;;;;;;5026729;28;20057;-73
2024/01/31 00:14:55;;;;;;;307.92;217.98;;;;;;;;;;5019164;28;20402;-73
2024/01/31 00:17:20;;;;;;;249.68;187.93;;;;;;;;;;5027314;28;20360;-73
2024/01/31 00:19:46;;;;;;;217.90;167.30;;;;;;;;;;5027088;28;20135;-73
2024/01/31 00:22:11;;;;;;;184.18;134.90;;;;;;;;;;5026989;28;20025;-76
2024/01/31 00:24:37;;;;;;;256.48;196.70;;;;;;;;;;5026660;28;20026;-74
2024/01/31 00:27:02;;;;;;;229.85;173.02;;;;;;;;;;5026963;28;20045;-77
2024/01/31 00:29:27;;;;;;;242.60;185.40;;;;;;;;;;5027274;28;20116;-74
2024/01/31 00:31:53;;;;;;;303.23;233.82;;;;;;;;;;5009161;28;20444;-74
2024/01/31 00:34:18;;;;;;;282.80;211.38;;;;;;;;;;5026153;28;20087;-72
2024/01/31 00:36:43;;;;;;;186.70;134.85;;;;;;;;;;5008922;28;20031;-73
2024/01/31 00:39:10;;;;;;;88.75;66.60;;;;;;;;;;5027108;28;20095;-73
2024/01/31 00:41:35;;;;;;;73.70;59.08;;;;;;;;;;5026886;28;20087;-73
2024/01/31 00:44:00;;;;;;;95.13;73.15;;;;;;;;;;5003236;28;20452;-73
2024/01/31 00:46:26;;;;;;;73.63;55.80;;;;;;;;;;5025479;28;20029;-77
2024/01/31 00:48:51;;;;;;;105.10;74.38;;;;;;;;;;5026904;28;20032;-75
2024/01/31 00:51:16;;;;;;;124.88;89.05;;;;;;;;;;5001694;28;20029;-73
2024/01/31 00:53:42;;;;;;;124.05;87.57;;;;;;;;;;5027300;28;20099;-75
2024/01/31 00:56:10;;;;;;;98.18;73.72;;;;;;;;;;5026562;28;20025;-73
2024/01/31 00:58:35;;;;;;;107.30;84.30;;;;;;;;;;5026716;28;20456;-75
2024/01/31 01:01:01;;;;;;;158.43;111.38;;;;;;;;;;5023863;28;20032;-74
2024/01/31 01:03:26;;;;;;;123.60;85.90;;;;;;;;;;5021073;28;20480;-78
2024/01/31 01:05:51;;;;;;;171.02;120.78;;;;;;;;;;5001125;28;20475;-76
2024/01/31 01:08:17;;;;;;;169.75;124.30;;;;;;;;;;5026808;28;20056;-73
2024/01/31 01:10:42;;;;;;;148.82;111.45;;;;;;;;;;5026664;28;20103;-76
2024/01/31 01:13:07;;;;;;;221.27;151.00;;;;;;;;;;5026649;28;20049;-74
2024/01/31 01:15:33;;;;;;;195.52;133.32;;;;;;;;;;5009111;28;20127;-76
2024/01/31 01:17:58;;;;;;;131.88;92.68;;;;;;;;;;5026359;28;20030;-75
2024/01/31 01:20:23;;;;;;;148.77;110.43;;;;;;;;;;5026563;28;20065;-74
2024/01/31 01:22:49;;;;;;;170.48;130.80;;;;;;;;;;5026451;28;20021;-74
2024/01/31 01:25:15;;;;;;;190.10;152.43;;;;;;;;;;5026276;28;20037;-75
2024/01/31 01:27:40;;;;;;;222.18;170.00;;;;;;;;;;5026234;28;20048;-78
2024/01/31 01:30:06;;;;;;;227.57;169.40;;;;;;;;;;5008652;28;20021;-78
2024/01/31 01:32:31;;;;;;;220.65;160.98;;;;;;;;;;5026523;28;20420;-73
2024/01/31 01:34:56;;;;;;;142.23;106.97;;;;;;;;;;5026342;28;20050;-75
2024/01/31 01:37:22;;;;;;;122.03;94.47;;;;;;;;;;5025371;28;20282;-74
2024/01/31 01:39:47;;;;;;;181.30;120.50;;;;;;;;;;5008866;28;20091;-73
2024/01/31 01:42:12;;;;;;;213.75;137.82;;;;;;;;;;5025832;28;20065;-75
2024/01/31 01:44:41;;;;;;;135.70;92.60;;;;;;;;;;4998139;28;20029;-74
2024/01/31 01:47:07;;;;;;;103.88;77.90;;;;;;;;;;5006640;28;20064;-73
2024/01/31 01:49:32;;;;;;;97.45;76.43;;;;;;;;;;5025778;28;20056;-72
2024/01/31 01:51:57;;;;;;;106.88;85.28;;;;;;;;;;5025168;28;20022;-72
2024/01/31 01:54:23;;;;;;;128.00;97.28;;;;;;;;;;5025584;28;20444;-73
2024/01/31 01:56:49;;;;;;;112.00;84.53;;;;;;;;;;5025231;28;20025;-73
2024/01/31 01:59:15;;;;;;;114.45;85.40;;;;;;;;;;5007807;28;20025;-75
2024/01/31 02:01:41;;;;;;;113.95;83.95;;;;;;;;;;5023458;28;20029;-73
2024/01/31 02:04:08;;;;;;;181.68;124.55;;;;;;;;;;5019324;28;20049;-72
2024/01/31 02:06:33;;;;;;;183.57;122.68;;;;;;;;;;5020363;28;20013;-74
2024/01/31 02:08:59;;;;;;;192.60;133.05;;;;;;;;;;5022136;28;20017;-73
2024/01/31 02:11:24;;;;;;;187.45;127.50;;;;;;;;;;5025185;28;20158;-77
2024/01/31 02:13:49;;;;;;;189.25;132.02;;;;;;;;;;5025023;28;20136;-76
2024/01/31 02:16:15;;;;;;;164.85;119.35;;;;;;;;;;5008214;28;20037;-74
2024/01/31 02:18:40;;;;;;;203.75;136.93;;;;;;;;;;5022325;28;20033;-77
2024/01/31 02:21:06;;;;;;;167.05;117.93;;;;;;;;;;5016622;28;20099;-74
2024/01/31 02:23:31;;;;;;;126.80;91.03;;;;;;;;;;5020268;28;20044;-73
2024/01/31 02:25:56;;;;;;;123.90;88.15;;;;;;;;;;5025107;28;20022;-73
2024/01/31 02:28:22;;;;;;;104.80;76.90;;;;;;;;;;5018502;28;20053;-73
2024/01/31 02:30:47;;;;;;;88.43;67.53;;;;;;;;;;5024145;28;20025;-74
2024/01/31 02:33:12;;;;;;;97.78;77.28;;;;;;;;;;5021317;28;20025;-73
2024/01/31 02:35:38;;;;;;;69.30;55.08;;;;;;;;;;5018805;28;20032;-77
2024/01/31 02:38:03;;;;;;;56.42;47.45;;;;;;;;;;5014671;28;20490;-79
2024/01/31 02:40:29;;;;;;;45.90;35.67;;;;;;;;;;5014876;28;20424;-76
2024/01/31 02:42:55;;;;;;;49.60;38.67;;;;;;;;;;4997344;28;20609;-74
2024/01/31 02:45:20;;;;;;;45.58;34.67;;;;;;;;;;5017849;28;20373;-73
2024/01/31 02:47:46;;;;;;;38.58;31.58;;;;;;;;;;5025631;28;20431;-74
2024/01/31 02:50:11;;;;;;;47.80;38.38;;;;;;;;;;5026477;28;20033;-74
2024/01/31 02:52:36;;;;;;;121.15;85.05;;;;;;;;;;5031186;28;20017;-74
2024/01/31 02:55:03;;;;;;;71.43;51.45;;;;;;;;;;5026018;28;20044;-74
2024/01/31 02:57:29;;;;;;;63.05;44.65;;;;;;;;;;5027104;28;20025;-76
2024/01/31 02:59:54;;;;;;;70.25;49.70;;;;;;;;;;5031754;28;20031;-76
2024/01/31 03:02:19;;;;;;;78.28;54.67;;;;;;;;;;5031515;28;20119;-78
2024/01/31 03:04:45;;;;;;;88.75;61.25;;;;;;;;;;5014043;28;20049;-78
2024/01/31 03:07:10;;;;;;;91.68;64.65;;;;;;;;;;5030924;28;20036;-77
2024/01/31 03:09:36;;;;;;;108.97;78.22;;;;;;;;;;5031212;28;20470;-76
2024/01/31 03:12:04;;;;;;;108.70;75.53;;;;;;;;;;5031580;28;20409;-76
2024/01/31 03:14:30;;;;;;;109.18;73.97;;;;;;;;;;5031174;28;20105;-76
2024/01/31 03:16:55;;;;;;;117.28;80.93;;;;;;;;;;5031218;28;20391;-77
2024/01/31 03:19:20;;;;;;;130.48;94.78;;;;;;;;;;5031204;28;20489;-76
2024/01/31 03:21:46;;;;;;;127.78;91.80;;;;;;;;;;5031176;28;20412;-77
2024/01/31 03:24:12;;;;;;;128.15;91.72;;;;;;;;;;5023303;28;20367;-80
2024/01/31 03:26:37;;;;;;;123.75;93.50;;;;;;;;;;5023437;28;20056;-79
2024/01/31 03:29:03;;;;;;;101.65;75.65;;;;;;;;;;5023027;28;20068;-77
2024/01/31 03:31:28;;;;;;;88.45;63.33;;;;;;;;;;5031109;28;20455;-82
2024/01/31 03:33:53;;;;;;;91.15;62.35;;;;;;;;;;5031113;28;20025;-76
2024/01/31 03:36:19;;;;;;;113.45;78.72;;;;;;;;;;5013800;28;20022;-77
2024/01/31 03:38:44;;;;;;;86.10;58.03;;;;;;;;;;5031332;28;20167;-77
2024/01/31 03:41:10;;;;;;;75.63;54.35;;;;;;;;;;5013607;28;20029;-77
2024/01/31 03:43:35;;;;;;;54.95;40.38;;;;;;;;;;5013429;28;20063;-77
2024/01/31 03:46:04;;;;;;;68.53;53.08;;;;;;;;;;5031152;28;20025;-77
2024/01/31 03:48:30;;;;;;;50.20;38.08;;;;;;;;;;5031767;28;20039;-77
2024/01/31 03:50:58;;;;;;;51.50;38.28;;;;;;;;;;5031335;28;20478;-77
2024/01/31 03:53:23;;;;;;;58.15;43.13;;;;;;;;;;5030688;28;20060;-79
2024/01/31 03:55:49;;;;;;;79.85;60.65;;;;;;;;;;5031008;28;20033;-77
2024/01/31 03:58:14;;;;;;;77.35;61.53;;;;;;;;;;5011961;28;20028;-76
2024/01/31 04:00:39;;;;;;;109.63;84.45;;;;;;;;;;5027899;28;20022;-78
2024/01/31 04:03:05;;;;;;;84.93;61.53;;;;;;;;;;5023676;28;20668;-77
2024/01/31 04:05:30;;;;;;;92.93;66.60;;;;;;;;;;5005204;28;20029;-77
2024/01/31 04:07:57;;;;;;;96.78;68.10;;;;;;;;;;5017976;28;20026;-81
2024/01/31 04:10:22;;;;;;;102.72;72.88;;;;;;;;;;5025363;28;20033;-77
2024/01/31 04:12:48;;;;;;;94.35;66.00;;;;;;;;;;5028052;28;20033;-76
2024/01/31 04:15:14;;;;;;;93.95;66.82;;;;;;;;;;5028408;28;21039;-77
2024/01/31 04:17:39;;;;;;;64.05;47.38;;;;;;;;;;5027485;28;20044;-78
2024/01/31 04:20:05;;;;;;;47.92;36.15;;;;;;;;;;5009763;28;20036;-77
2024/01/31 04:22:31;;;;;;;85.97;68.13;;;;;;;;;;5022015;28;20048;-80
2024/01/31 04:24:56;;;;;;;141.32;112.30;;;;;;;;;;5000614;28;20420;-79
2024/01/31 04:27:22;;;;;;;88.63;64.13;;;;;;;;;;5016819;28;20539;-77
2024/01/31 04:29:47;;;;;;;86.47;66.03;;;;;;;;;;5017573;28;20420;-79
2024/01/31 04:32:12;;;;;;;90.45;69.95;;;;;;;;;;4998991;28;20029;-77
2024/01/31 04:34:38;;;;;;;83.97;67.38;;;;;;;;;;5017141;28;20112;-77
2024/01/31 04:37:03;;;;;;;77.07;60.75;;;;;;;;;;5017329;28;20447;-77
2024/01/31 04:39:29;;;;;;;73.40;61.45;;;;;;;;;;5017057;28;20037;-76
2024/01/31 04:41:54;;;;;;;59.88;48.30;;;;;;;;;;5017595;28;20022;-76
2024/01/31 04:44:19;;;;;;;58.67;43.55;;;;;;;;;;5017099;28;20095;-76
2024/01/31 04:46:45;;;;;;;51.08;41.88;;;;;;;;;;5017272;28;20424;-76
2024/01/31 04:49:10;;;;;;;52.67;44.90;;;;;;;;;;5015285;28;20342;-80
2024/01/31 04:51:39;;;;;;;50.40;44.53;;;;;;;;;;5017176;28;20087;-78
2024/01/31 04:54:04;;;;;;;53.75;42.95;;;;;;;;;;5015822;28;20033;-76
2024/01/31 04:56:30;;;;;;;51.75;41.58;;;;;;;;;;5023346;28;20421;-76
2024/01/31 04:58:55;;;;;;;96.70;66.72;;;;;;;;;;5026597;28;20309;-78
2024/01/31 05:01:20;;;;;;;168.02;119.15;;;;;;;;;;5021774;28;20025;-77
2024/01/31 05:03:46;;;;;;;94.38;69.68;;;;;;;;;;5005025;28;20108;-76
2024/01/31 05:06:11;;;;;;;93.97;70.72;;;;;;;;;;5026767;28;20484;-82
2024/01/31 05:08:36;;;;;;;86.50;65.30;;;;;;;;;;5021565;28;20040;-78
2024/01/31 05:11:02;;;;;;;99.65;79.80;;;;;;;;;;4998992;28;20084;-75
2024/01/31 05:13:27;;;;;;;93.97;67.18;;;;;;;;;;5026754;28;20495;-75
2024/01/31 05:15:52;;;;;;;51.20;38.30;;;;;;;;;;5026355;28;20025;-74
2024/01/31 05:18:18;;;;;;;45.53;33.72;;;;;;;;;;5026179;28;20018;-75
2024/01/31 05:20:43;;;;;;;131.05;101.35;;;;;;;;;;5026034;28;20151;-75
2024/01/31 05:23:09;;;;;;;258.75;199.00;;;;;;;;;;5017569;28;20017;-78
2024/01/31 05:25:34;;;;;;;171.85;127.63;;;;;;;;;;5016444;28;20131;-80
2024/01/31 05:27:59;;;;;;;126.47;97.95;;;;;;;;;;5015566;28;20029;-76
2024/01/31 05:30:25;;;;;;;143.25;106.57;;;;;;;;;;5016085;28;20064;-81
2024/01/31 05:32:50;;;;;;;144.52;101.53;;;;;;;;;;5016807;28;20132;-77
2024/01/31 05:35:15;;;;;;;123.63;85.00;;;;;;;;;;4998407;28;20031;-76
2024/01/31 05:37:41;;;;;;;128.30;90.20;;;;;;;;;;5022279;28;20116;-76
2024/01/31 05:40:07;;;;;;;126.60;87.32;;;;;;;;;;5023582;28;20352;-77
2024/01/31 05:42:33;;;;;;;137.85;94.35;;;;;;;;;;5015850;28;20022;-75
2024/01/31 05:44:58;;;;;;;180.15;124.63;;;;;;;;;;4997255;28;20091;-77
2024/01/31 05:47:23;;;;;;;460.33;335.65;;;;;;;;;;5023945;28;20067;-77
2024/01/31 05:49:49;;;;;;;364.10;257.30;;;;;;;;;;5024658;28;20060;-77
2024/01/31 05:52:14;;;;;;;202.82;137.32;;;;;;;;;;5007382;28;20076;-77
2024/01/31 05:54:40;;;;;;;242.43;173.50;;;;;;;;;;5025794;28;20037;-78
2024/01/31 05:57:06;;;;;;;364.33;266.10;;;;;;;;;;5007350;28;20083;-79
2024/01/31 05:59:31;;;;;;;422.85;303.48;;;;;;;;;;5015896;28;20460;-77
2024/01/31 06:01:58;;;;;;;287.13;209.88;;;;;;;;;;5015138;28;20045;-78
2024/01/31 06:04:24;;;;;;;358.58;264.10;;;;;;;;;;4999818;28;20081;-78
2024/01/31 06:06:49;;;;;;;402.27;300.42;;;;;;;;;;5008332;28;20057;-77
2024/01/31 06:09:14;;;;;;;262.33;186.93;;;;;;;;;;5025731;28;20084;-76
2024/01/31 06:11:40;;;;;;;418.17;295.38;;;;;;;;;;5017700;28;20053;-77
2024/01/31 06:14:06;;;;;;;619.22;476.48;;;;;;;;;;5011564;28;20029;-77
2024/01/31 06:16:32;;;;;;;750.47;574.28;;;;;;;;;;5014758;28;20411;-76
2024/01/31 06:18:58;;;;;;;538.55;373.17;;;;;;;;;;5014075;28;20021;-78
2024/01/31 06:21:23;;;;;;;652.35;432.30;;;;;;;;;;5013658;28;20076;-77
2024/01/31 06:23:48;;;;;;;862.05;602.38;;;;;;;;;;5019812;28;20091;-77
2024/01/31 06:26:14;;;;;;;650.47;483.73;;;;;;;;;;5024308;28;20025;-76
2024/01/31 06:28:39;;;;;;;469.83;351.17;;;;;;;;;;5025059;28;20432;-77
2024/01/31 06:31:13;;;;;;;297.65;246.88;;;;;;;;;;5024905;28;20025;-77
2024/01/31 06:33:42;;;;;;;233.65;197.02;;;;;;;;;;5021724;28;20021;-78
2024/01/31 06:36:08;;;;;;;276.23;208.52;;;;;;;;;;5019333;28;20029;-77
2024/01/31 06:38:33;;;;;;;408.52;299.70;;;;;;;;;;5014649;28;20427;-75
2024/01/31 06:40:59;;;;;;;268.50;209.85;;;;;;;;;;5025172;28;20035;-75
2024/01/31 06:43:27;;;;;;;179.27;139.40;;;;;;;;;;5025469;28;20075;-79
2024/01/31 06:45:53;;;;;;;467.38;328.58;;;;;;;;;;5024933;28;20025;-77
2024/01/31 06:48:19;;;;;;;181.15;140.23;;;;;;;;;;5020537;28;20036;-75
2024/01/31 06:50:44;;;;;;;181.48;130.10;;;;;;;;;;5015947;28;20421;-78
2024/01/31 06:53:10;;;;;;;142.90;110.18;;;;;;;;;;5024054;28;20092;-79
2024/01/31 06:55:35;;;;;;;116.93;92.70;;;;;;;;;;5025149;28;20026;-76
2024/01/31 06:58:00;;;;;;;116.97;96.57;;;;;;;;;;5024358;28;20041;-77
2024/01/31 07:00:26;;;;;;;99.28;82.35;;;;;;;;;;5024108;28;20033;-77
2024/01/31 07:02:53;;;;;;;109.40;86.90;;;;;;;;;;5016450;28;20029;-77
2024/01/31 07:05:18;;;;;;;98.38;81.47;;;;;;;;;;5023914;28;20520;-77
2024/01/31 07:07:44;;;;;;;94.35;76.18;;;;;;;;;;5023759;28;20018;-78
2024/01/31 07:10:09;;;;;;;108.78;90.13;;;;;;;;;;5023434;28;20099;-76
2024/01/31 07:12:35;;;;;;;80.35;67.88;;;;;;;;;;5024453;28;20025;-77
2024/01/31 07:15:00;;;;;;;172.05;135.15;;;;;;;;;;5024074;28;20048;-76
2024/01/31 07:17:25;;;;;;;94.72;81.30;;;;;;;;;;5024798;28;20067;-77
2024/01/31 07:19:51;;;;;;;121.25;94.60;;;;;;;;;;5024834;28;20109;-75
2024/01/31 07:22:16;;;;;;;75.20;62.00;;;;;;;;;;5025314;28;20053;-75
2024/01/31 07:24:42;;;;;;;53.67;45.33;;;;;;;;;;5024718;28;20076;-75
2024/01/31 07:27:07;;;;;;;49.95;42.35;;;;;;;;;;5025084;28;20137;-77
2024/01/31 07:29:32;;;;;;;86.22;75.63;;;;;;;;;;5025098;28;20466;-77
2024/01/31 07:31:58;;;;;;;113.57;97.95;;;;;;;;;;5024405;28;20494;-79
2024/01/31 07:34:23;;;;;;;69.47;59.65;;;;;;;;;;5025965;28;20484;-77
2024/01/31 07:36:48;;;;;;;107.75;85.00;;;;;;;;;;5028954;28;20380;-78
2024/01/31 07:39:14;;;;;;;75.35;64.30;;;;;;;;;;5028634;28;20140;-80
2024/01/31 07:41:40;;;;;;;83.97;67.15;;;;;;;;;;5011126;28;20025;-79
2024/01/31 07:44:05;;;;;;;69.40;62.10;;;;;;;;;;5026912;28;20044;-78
2024/01/31 07:46:31;;;;;;;79.55;66.22;;;;;;;;;;5027675;28;20029;-77
2024/01/31 07:48:56;;;;;;;102.65;83.18;;;;;;;;;;5028392;28;20531;-76
2024/01/31 07:51:21;;;;;;;122.05;98.50;;;;;;;;;;5026117;28;20363;-77
2024/01/31 07:53:47;;;;;;;78.95;70.30;;;;;;;;;;4991191;28;20088;-79
2024/01/31 07:56:12;;;;;;;84.35;75.40;;;;;;;;;;5008629;28;20022;-76
2024/01/31 07:58:37;;;;;;;76.45;67.65;;;;;;;;;;5027066;28;20037;-78
2024/01/31 08:01:03;;;;;;;112.03;99.95;;;;;;;;;;5026638;28;20109;-79
2024/01/31 08:03:28;;;;;;;115.20;102.57;;;;;;;;;;5017118;28;20097;-77
2024/01/31 08:05:54;;;;;;;184.35;164.95;;;;;;;;;;5017742;28;20142;-76
2024/01/31 08:08:20;;;;;;;112.63;100.97;;;;;;;;;;5019853;28;20045;-76
2024/01/31 08:10:46;;;;;;;89.03;79.32;;;;;;;;;;5025023;28;20083;-78
2024/01/31 08:13:12;;;;;;;78.32;70.03;;;;;;;;;;5027224;28;20030;-77
2024/01/31 08:15:37;;;;;;;72.10;61.85;;;;;;;;;;5027964;28;20017;-78
2024/01/31 08:18:02;;;;;;;48.00;40.15;;;;;;;;;;5028670;28;20036;-77
2024/01/31 08:20:28;;;;;;;48.85;42.42;;;;;;;;;;5028439;28;20120;-79
2024/01/31 08:22:53;;;;;;;53.97;45.97;;;;;;;;;;5027831;28;20733;-77
2024/01/31 08:25:19;;;;;;;68.82;59.60;;;;;;;;;;5027335;28;20052;-77
2024/01/31 08:27:44;;;;;;;64.00;52.08;;;;;;;;;;5024705;28;20510;-78
2024/01/31 08:30:10;;;;;;;45.20;39.00;;;;;;;;;;5017255;28;20348;-79
2024/01/31 08:32:35;;;;;;;30.98;27.52;;;;;;;;;;5017551;28;20112;-76
2024/01/31 08:35:05;;;;;;;28.20;25.13;;;;;;;;;;5017231;28;20081;-78
2024/01/31 08:37:30;;;;;;;44.50;37.75;;;;;;;;;;5014912;28;20120;-77
2024/01/31 08:39:55;;;;;;;44.25;34.08;;;;;;;;;;5016474;28;20504;-80
2024/01/31 08:42:21;;;;;;;70.25;58.05;;;;;;;;;;5016779;28;20444;-79
2024/01/31 08:44:46;;;;;;;28.98;24.83;;;;;;;;;;5015627;28;20053;-76
2024/01/31 08:47:12;;;;;;;35.25;29.63;;;;;;;;;;5016829;28;20033;-77
2024/01/31 08:49:37;;;;;;;24.58;21.63;;;;;;;;;;5016095;28;20022;-75
2024/01/31 08:52:02;;;;;;;19.83;16.95;;;;;;;;;;5016447;28;20025;-76
2024/01/31 08:54:28;;;;;;;19.05;17.02;;;;;;;;;;5016479;28;20041;-77
2024/01/31 08:56:56;;;;;;;24.83;21.38;;;;;;;;;;5026260;28;20029;-74
2024/01/31 08:59:24;;;;;;;30.88;27.40;;;;;;;;;;5025409;28;20038;-76
2024/01/31 09:01:49;;;;;;;24.15;21.65;;;;;;;;;;5026150;28;20025;-73
2024/01/31 09:04:21;;;;;;;28.83;25.05;;;;;;;;;;5016046;28;20376;-74
2024/01/31 09:06:46;;;;;;;32.40;28.90;;;;;;;;;;5023378;28;20029;-74
2024/01/31 09:09:15;;;;;;;33.03;28.10;;;;;;;;;;5025986;28;20140;-77
2024/01/31 09:11:50;;;;;;;25.88;23.15;;;;;;;;;;5010926;28;20456;-78
2024/01/31 09:14:15;;;;;;;28.63;25.55;;;;;;;;;;5026713;28;20091;-77
2024/01/31 09:16:41;;;;;;;35.65;31.77;;;;;;;;;;5008540;28;20498;-75
2024/01/31 09:19:07;;;;;;;28.65;25.63;;;;;;;;;;5026438;28;20109;-76
2024/01/31 09:21:35;;;;;;;29.08;26.05;;;;;;;;;;5025996;28;20471;-76
2024/01/31 09:24:00;;;;;;;72.72;64.82;;;;;;;;;;5026549;28;20091;-74
2024/01/31 09:26:26;;;;;;;55.30;49.50;;;;;;;;;;5026330;28;20022;-77
2024/01/31 09:28:51;;;;;;;52.33;46.92;;;;;;;;;;5026160;28;20029;-80
2024/01/31 09:31:21;;;;;;;37.97;33.97;;;;;;;;;;5026782;28;20021;-80
2024/01/31 09:33:46;;;;;;;32.00;28.80;;;;;;;;;;5026431;28;20037;-76
2024/01/31 09:36:11;;;;;;;23.77;21.27;;;;;;;;;;5026467;28;20356;-78
2024/01/31 09:38:37;;;;;;;18.20;15.20;;;;;;;;;;5026323;28;20352;-77
2024/01/31 09:41:02;;;;;;;42.88;30.52;;;;;;;;;;5026391;28;20025;-77
2024/01/31 09:43:28;;;;;;;110.15;69.68;;;;;;;;;;5026387;28;20036;-73
2024/01/31 09:45:55;;;;;;;90.68;62.83;;;;;;;;;;5026820;28;20053;-74
2024/01/31 09:48:20;;;;;;;80.35;64.53;;;;;;;;;;5026034;28;20029;-73
2024/01/31 09:50:46;;;;;;;36.20;31.02;;;;;;;;;;5026449;28;20467;-77
2024/01/31 09:53:13;;;;;;;43.15;35.33;;;;;;;;;;5026254;28;20475;-72
2024/01/31 09:55:38;;;;;;;15.73;13.98;;;;;;;;;;5019923;28;20439;-74
2024/01/31 09:58:04;;;;;;;37.63;29.77;;;;;;;;;;5018664;28;20025;-74
2024/01/31 10:00:29;;;;;;;27.73;22.75;;;;;;;;;;5025751;28;20100;-74
2024/01/31 10:02:55;;;;;;;11.35;10.27;;;;;;;;;;5025021;28;20029;-76
2024/01/31 10:05:20;;;;;;;10.77;9.68;;;;;;;;;;5018675;28;20044;-75
2024/01/31 10:07:46;;;;;;;20.50;18.50;;;;;;;;;;5025537;28;20029;-73
2024/01/31 10:10:11;;;;;;;11.98;10.82;;;;;;;;;;5025502;28;20132;-75
2024/01/31 10:12:38;;;;;;;11.95;10.82;;;;;;;;;;5025681;28;20459;-78
2024/01/31 10:15:03;;;;;;;12.40;11.30;;;;;;;;;;5025466;28;20448;-75
2024/01/31 10:17:29;;;;;;;16.00;14.40;;;;;;;;;;5015210;28;20021;-78
2024/01/31 10:19:54;;;;;;;11.18;10.10;;;;;;;;;;5019113;28;20056;-73
2024/01/31 10:22:20;;;;;;;12.25;11.05;;;;;;;;;;5025660;28;20044;-76
2024/01/31 10:24:46;;;;;;;15.48;13.05;;;;;;;;;;5025639;28;20139;-77
2024/01/31 10:27:11;;;;;;;16.92;15.10;;;;;;;;;;5025187;28;20044;-74
2024/01/31 10:29:37;;;;;;;19.77;17.80;;;;;;;;;;5007874;28;20274;-73
2024/01/31 10:32:03;;;;;;;15.30;13.75;;;;;;;;;;5025293;28;20013;-78
2024/01/31 10:34:29;;;;;;;13.60;12.20;;;;;;;;;;5024904;28;20040;-74
2024/01/31 10:36:54;;;;;;;22.00;18.17;;;;;;;;;;5022412;28;20765;-74
2024/01/31 10:39:20;;;;;;;24.27;20.85;;;;;;;;;;5015330;28;20028;-76
2024/01/31 10:41:46;;;;;;;55.10;40.88;;;;;;;;;;5020829;28;20113;-72
2024/01/31 10:44:14;;;;;;;35.15;29.15;;;;;;;;;;5007787;28;20044;-73
2024/01/31 10:46:39;;;;;;;16.75;15.05;;;;;;;;;;5025010;28;20017;-75
2024/01/31 10:49:05;;;;;;;13.20;11.98;;;;;;;;;;5025139;28;20471;-77
2024/01/31 10:51:30;;;;;;;9.20;8.20;;;;;;;;;;5024940;28;20437;-74
2024/01/31 10:53:56;;;;;;;9.73;8.75;;;;;;;;;;5025661;28;20044;-75
2024/01/31 10:56:24;;;;;;;11.07;9.98;;;;;;;;;;5025374;28;20040;-75
2024/01/31 10:58:50;;;;;;;12.00;10.80;;;;;;;;;;5018000;28;20048;-75
2024/01/31 11:01:16;;;;;;;20.30;18.20;;;;;;;;;;4999918;28;20404;-75
2024/01/31 11:03:45;;;;;;;33.22;22.25;;;;;;;;;;5006152;28;20118;-73
2024/01/31 11:06:11;;;;;;;16.67;14.70;;;;;;;;;;5014931;28;20033;-74
2024/01/31 11:08:39;;;;;;;14.15;12.75;;;;;;;;;;5019898;28;20033;-72
2024/01/31 11:11:08;;;;;;;52.53;44.40;;;;;;;;;;5023710;28;20033;-72
2024/01/31 11:13:34;;;;;;;38.38;32.60;;;;;;;;;;5029105;28;20033;-72
2024/01/31 11:16:00;;;;;;;20.55;18.55;;;;;;;;;;5029560;28;20563;-75
2024/01/31 11:18:25;;;;;;;16.65;15.15;;;;;;;;;;5029129;28;20108;-76
2024/01/31 11:20:51;;;;;;;21.08;18.85;;;;;;;;;;5027672;28;20068;-73
2024/01/31 11:23:16;;;;;;;25.20;22.55;;;;;;;;;;5028312;28;20033;-76
2024/01/31 11:25:46;;;;;;;21.00;18.90;;;;;;;;;;5025214;28;20037;-74
2024/01/31 11:28:11;;;;;;;;;;;;;;;;;;5028842;28;20148;-73
2024/01/31 11:30:37;;;;;;;16.58;14.88;;;;;;;;;;5028351;28;20000;-75
2024/01/31 11:33:03;;;;;;;23.85;19.13;;;;;;;;;;5028351;28;20025;-74
2024/01/31 11:35:28;;;;;;;14.60;11.63;;;;;;;;;;5028646;28;20029;-76
2024/01/31 11:37:57;;;;;;;9.40;8.50;;;;;;;;;;5026352;28;20028;-75
2024/01/31 11:40:22;;;;;;;;;;;;;;;;;;5024480;28;20056;-74
2024/01/31 11:42:48;;;;;;;34.03;30.67;;;;;;;;;;5027155;28;20398;-74
2024/01/31 11:45:14;;;;;;;9.18;8.38;;;;;;;;;;5018935;28;20041;-76
2024/01/31 11:47:39;;;;;;;7.15;6.55;;;;;;;;;;5022067;28;20371;-73
2024/01/31 11:50:05;;;;;;;14.35;12.88;;;;;;;;;;5019478;28;20115;-79
2024/01/31 11:52:30;;;;;;;8.45;7.65;;;;;;;;;;5018741;28;20030;-75
2024/01/31 11:54:56;;;;;;;27.98;25.08;;;;;;;;;;5019359;28;20058;-75
2024/01/31 11:57:21;;;;;;;13.20;11.93;;;;;;;;;;5018415;28;20448;-74
2024/01/31 11:59:47;;;;;;;6.55;6.05;;;;;;;;;;5032116;28;20064;-73
2024/01/31 12:02:12;;;;;;;20.48;18.52;;;;;;;;;;5027651;28;20438;-74
2024/01/31 12:04:37;;;;;;;18.20;16.50;;;;;;;;;;5020150;28;20496;-73
2024/01/31 12:07:04;;;;;;;22.75;20.65;;;;;;;;;;5015844;28;20021;-73
2024/01/31 12:09:30;;;;;;;6.70;6.10;;;;;;;;;;5008062;28;20025;-74
2024/01/31 12:11:55;;;;;;;5.68;5.28;;;;;;;;;;5020787;28;20021;-72
2024/01/31 12:14:20;;;;;;;9.25;8.20;;;;;;;;;;5027041;28;20033;-74
2024/01/31 12:16:46;;;;;;;7.85;7.25;;;;;;;;;;5027449;28;20028;-75
2024/01/31 12:19:17;;;;;;;14.80;13.40;;;;;;;;;;5026856;28;20033;-74
2024/01/31 12:21:42;;;;;;;12.77;11.38;;;;;;;;;;5026601;28;20032;-74
2024/01/31 12:24:08;;;;;;;11.07;10.00;;;;;;;;;;5027821;28;20352;-73
2024/01/31 12:26:33;;;;;;;12.63;11.52;;;;;;;;;;5026515;28;20080;-74
2024/01/31 12:28:58;;;;;;;13.13;11.93;;;;;;;;;;5028007;28;20029;-74
2024/01/31 12:31:24;;;;;;;15.40;14.00;;;;;;;;;;5027486;28;20057;-72
2024/01/31 12:33:49;;;;;;;9.27;8.48;;;;;;;;;;5028016;28;20036;-72
2024/01/31 12:36:15;;;;;;;14.65;13.40;;;;;;;;;;5027154;28;20029;-75
2024/01/31 12:38:40;;;;;;;18.42;16.73;;;;;;;;;;5027007;28;20475;-74
2024/01/31 12:41:06;;;;;;;12.80;11.70;;;;;;;;;;5027235;28;20025;-76
2024/01/31 12:43:31;;;;;;;15.90;14.50;;;;;;;;;;5027091;28;20036;-73
2024/01/31 12:45:57;;;;;;;17.92;16.40;;;;;;;;;;5026422;28;20036;-72
2024/01/31 12:48:22;;;;;;;31.88;28.77;;;;;;;;;;5026530;28;20029;-74
2024/01/31 12:50:47;;;;;;;35.67;32.38;;;;;;;;;;5027533;28;20079;-73
2024/01/31 12:53:13;;;;;;;38.28;34.38;;;;;;;;;;5026620;28;20025;-72
2024/01/31 12:55:38;;;;;;;31.92;28.92;;;;;;;;;;5027377;28;20040;-72
2024/01/31 12:58:03;;;;;;;80.03;71.93;;;;;;;;;;5026992;28;20120;-72
2024/01/31 13:00:29;;;;;;;25.20;23.05;;;;;;;;;;5027195;28;20049;-75
2024/01/31 13:02:54;;;;;;;11.85;10.95;;;;;;;;;;5027071;28;20496;-73
2024/01/31 13:05:20;;;;;;;13.45;12.35;;;;;;;;;;5026621;28;20030;-74
2024/01/31 13:07:45;;;;;;;18.80;17.00;;;;;;;;;;5027112;28;20104;-74
2024/01/31 13:10:11;;;;;;;11.35;10.55;;;;;;;;;;5026930;28;20072;-73
2024/01/31 13:12:36;;;;;;;7.22;6.72;;;;;;;;;;5027064;28;20029;-74
2024/01/31 13:15:01;;;;;;;11.38;10.57;;;;;;;;;;5027433;28;20348;-73
2024/01/31 13:17:27;;;;;;;10.70;9.90;;;;;;;;;;5027380;28;20035;-73
2024/01/31 13:19:52;;;;;;;9.90;9.20;;;;;;;;;;5026688;28;20029;-74
2024/01/31 13:22:17;;;;;;;9.57;8.93;;;;;;;;;;5026757;28;20388;-73
2024/01/31 13:24:43;;;;;;;9.05;8.45;;;;;;;;;;5026460;28;20034;-76
2024/01/31 13:27:08;;;;;;;39.85;36.13;;;;;;;;;;5026414;28;20037;-74
2024/01/31 13:29:33;;;;;;;10.60;9.80;;;;;;;;;;5009886;28;20088;-74
2024/01/31 13:31:59;;;;;;;10.60;9.55;;;;;;;;;;5026530;28;20026;-74
2024/01/31 13:34:24;;;;;;;8.20;7.70;;;;;;;;;;5026080;28;20059;-72
2024/01/31 13:36:52;;;;;;;7.53;7.10;;;;;;;;;;5026114;28;20025;-72
2024/01/31 13:39:18;;;;;;;13.02;12.13;;;;;;;;;;5024927;28;20052;-73
2024/01/31 13:41:43;;;;;;;10.25;9.55;;;;;;;;;;5026016;28;20021;-73
2024/01/31 13:44:08;;;;;;;25.23;23.15;;;;;;;;;;5026183;28;20026;-73
2024/01/31 13:46:37;;;;;;;13.65;12.68;;;;;;;;;;5025888;28;20048;-74
2024/01/31 13:49:03;;;;;;;10.18;9.48;;;;;;;;;;5026165;28;20032;-72
2024/01/31 13:51:28;;;;;;;13.43;12.32;;;;;;;;;;5025675;28;20025;-72
2024/01/31 13:53:53;;;;;;;9.98;9.13;;;;;;;;;;5025840;28;20029;-74
2024/01/31 13:56:19;;;;;;;53.00;48.78;;;;;;;;;;5026164;28;20126;-75
2024/01/31 13:58:44;;;;;;;14.80;13.60;;;;;;;;;;5008834;28;20357;-74
2024/01/31 14:01:09;;;;;;;80.50;72.20;;;;;;;;;;5025653;28;20083;-73